Time;durP1;ratioP1;P1;durP2;ratioP2;P2;SDS_P1;SDS_P2;PMS_P1;PMS_P2;Temp;Humidity;BMP_temperature;BMP_pressure;BME280_temperature;BME280_humidity;BME280_pressure;Samples;Min_cycle;Max_cycle;Signal;HPM_P1;HPM_P2
2023/07/02 00:00:04;;;;;;;5.77;4.97;;;16.70;1.00;;;;;;5141460;27;20461;-67
2023/07/02 00:02:31;;;;;;;6.37;4.87;;;16.70;99.90;;;;;;5140692;27;20482;-68
2023/07/02 00:05:00;;;;;;;6.77;5.10;;;16.70;99.90;;;;;;5140296;27;20459;-67
2023/07/02 00:07:27;;;;;;;6.40;5.10;;;16.60;1.00;;;;;;5140805;27;20502;-67
2023/07/02 00:09:55;;;;;;;7.07;5.17;;;16.60;99.90;;;;;;5141059;27;20462;-67
2023/07/02 00:12:22;;;;;;;5.20;4.70;;;16.60;1.00;;;;;;5140686;27;20459;-68
2023/07/02 00:14:52;;;;;;;10.03;5.03;;;16.60;1.00;;;;;;5141092;27;20466;-69
2023/07/02 00:17:19;;;;;;;8.40;5.30;;;16.70;1.00;;;;;;5140511;27;20437;-68
2023/07/02 00:19:47;;;;;;;10.83;6.00;;;16.60;99.90;;;;;;5139846;27;20486;-67
2023/07/02 00:22:15;;;;;;;6.87;5.90;;;16.60;99.90;;;;;;5140264;27;20437;-68
2023/07/02 00:24:43;;;;;;;7.93;6.40;;;16.70;99.90;;;;;;5140878;27;20884;-68
2023/07/02 00:27:10;;;;;;;6.33;5.43;;;16.70;99.90;;;;;;5140130;27;20515;-68
2023/07/02 00:29:37;;;;;;;9.53;7.20;;;16.70;99.90;;;;;;5140001;27;20455;-67
2023/07/02 00:32:05;;;;;;;7.13;5.73;;;16.70;99.90;;;;;;5140379;27;20463;-67
2023/07/02 00:34:33;;;;;;;7.20;5.40;;;16.60;99.90;;;;;;5139988;27;20455;-68
2023/07/02 00:37:00;;;;;;;7.47;5.67;;;16.60;99.90;;;;;;5140218;27;20758;-68
2023/07/02 00:39:28;;;;;;;9.77;6.33;;;16.60;99.90;;;;;;5139852;27;20470;-68
2023/07/02 00:42:00;;;;;;;8.13;5.57;;;16.50;99.90;;;;;;5140053;27;20469;-67
2023/07/02 00:44:28;;;;;;;7.63;6.57;;;16.50;99.90;;;;;;5140489;27;20459;-67
2023/07/02 00:46:55;;;;;;;9.37;6.20;;;16.60;99.90;;;;;;5140183;27;20465;-68
2023/07/02 00:49:23;;;;;;;8.10;5.93;;;16.50;99.90;;;;;;5139466;27;20458;-68
2023/07/02 00:51:50;;;;;;;7.40;6.37;;;16.50;99.90;;;;;;5139058;27;20458;-68
2023/07/02 00:54:17;;;;;;;11.80;6.03;;;16.50;99.90;;;;;;5139825;27;20477;-67
2023/07/02 00:56:46;;;;;;;9.80;6.23;;;16.50;99.90;;;;;;5139892;27;20507;-66
2023/07/02 00:59:13;;;;;;;10.10;6.27;;;16.50;99.90;;;;;;5139612;27;20469;-68
2023/07/02 01:01:40;;;;;;;8.13;5.40;;;16.50;99.90;;;;;;5138651;27;20494;-67
2023/07/02 01:04:09;;;;;;;7.60;4.97;;;16.40;99.90;;;;;;5140483;27;20858;-67
2023/07/02 01:06:40;;;;;;;8.40;5.50;;;16.40;99.90;;;;;;5139368;27;20545;-67
2023/07/02 01:09:08;;;;;;;5.83;4.93;;;16.40;99.90;;;;;;5134643;27;20474;-67
2023/07/02 01:11:38;;;;;;;9.80;6.30;;;16.40;99.90;;;;;;5137806;27;20493;-67
2023/07/02 01:14:10;;;;;;;8.73;5.47;;;16.40;99.90;;;;;;5139844;27;20481;-69
2023/07/02 01:16:39;;;;;;;7.47;5.90;;;16.40;99.90;;;;;;5139425;27;20465;-68
2023/07/02 01:19:12;;;;;;;7.80;5.30;;;16.40;99.90;;;;;;5139219;27;20489;-68
2023/07/02 01:21:41;;;;;;;9.27;5.97;;;16.30;99.90;;;;;;5138767;27;20490;-68
2023/07/02 01:24:09;;;;;;;8.50;5.40;;;16.20;99.90;;;;;;5139005;27;20463;-68
2023/07/02 01:26:37;;;;;;;7.83;6.60;;;16.30;99.90;;;;;;5139455;27;20464;-67
2023/07/02 01:29:15;;;;;;;8.67;6.00;;;16.20;99.90;;;;;;5139052;27;20462;-67
2023/07/02 01:31:42;;;;;;;11.80;6.20;;;16.10;99.90;;;;;;5138052;27;20461;-67
2023/07/02 01:34:10;;;;;;;11.30;6.30;;;16.20;1.00;;;;;;5138765;27;20463;-67
2023/07/02 01:36:37;;;;;;;10.30;6.23;;;16.10;99.90;;;;;;5139117;27;20445;-67
2023/07/02 01:39:06;;;;;;;10.80;6.87;;;16.10;99.90;;;;;;5138126;27;20458;-66
2023/07/02 01:41:38;;;;;;;9.47;5.90;;;16.10;99.90;;;;;;5137903;27;20784;-66
2023/07/02 01:44:05;;;;;;;8.83;6.17;;;16.00;99.90;;;;;;5139052;27;20459;-68
2023/07/02 01:46:32;;;;;;;11.83;6.97;;;16.00;99.90;;;;;;5139071;27;20463;-67
2023/07/02 01:48:59;;;;;;;13.73;7.40;;;15.90;99.90;;;;;;5138855;27;20436;-66
2023/07/02 01:51:27;;;;;;;16.43;8.17;;;16.00;99.90;;;;;;5138745;27;20465;-68
2023/07/02 01:53:54;;;;;;;12.50;7.70;;;15.90;1.00;;;;;;5138417;27;20468;-67
2023/07/02 01:56:22;;;;;;;12.47;7.73;;;15.90;1.00;;;;;;5138589;27;20462;-68
2023/07/02 01:58:49;;;;;;;10.87;7.47;;;15.90;1.00;;;;;;5138937;27;20463;-67
2023/07/02 02:01:17;;;;;;;12.90;7.93;;;15.80;1.00;;;;;;5137895;27;20468;-67
2023/07/02 02:03:44;;;;;;;24.30;8.23;;;15.70;1.00;;;;;;5138668;27;20962;-68
2023/07/02 02:06:11;;;;;;;10.17;7.93;;;15.70;1.00;;;;;;5139056;27;20467;-67
2023/07/02 02:08:38;;;;;;;14.00;8.87;;;15.60;1.00;;;;;;5139194;27;20476;-68
2023/07/02 02:11:05;;;;;;;15.23;8.57;;;15.60;1.00;;;;;;5138280;27;20547;-67
2023/07/02 02:13:34;;;;;;;12.73;8.33;;;15.50;1.00;;;;;;5139071;27;20462;-67
2023/07/02 02:16:01;;;;;;;15.77;9.40;;;15.50;1.00;;;;;;5138701;27;20815;-68
2023/07/02 02:18:28;;;;;;;12.00;9.60;;;15.50;1.00;;;;;;5138717;27;20454;-67
2023/07/02 02:20:55;;;;;;;10.27;9.23;;;15.50;1.00;;;;;;5138182;27;20505;-67
2023/07/02 02:23:22;;;;;;;12.83;9.23;;;15.50;1.00;;;;;;5137794;28;20935;-67
2023/07/02 02:25:49;;;;;;;16.77;9.40;;;15.50;1.00;;;;;;5138541;28;20458;-67
2023/07/02 02:28:16;;;;;;;13.60;9.27;;;15.50;1.00;;;;;;5138294;28;20462;-68
2023/07/02 02:30:45;;;;;;;12.93;9.03;;;15.50;82.60;;;;;;5138134;28;20465;-67
2023/07/02 02:33:12;;;;;;;19.40;10.47;;;15.50;1.00;;;;;;5138174;28;20469;-59
2023/07/02 02:35:39;;;;;;;17.53;9.90;;;15.50;1.00;;;;;;5137411;28;20438;-60
2023/07/02 02:38:06;;;;;;;18.03;9.57;;;15.40;99.90;;;;;;5137683;28;20764;-61
2023/07/02 02:40:34;;;;;;;15.57;9.70;;;15.40;1.00;;;;;;5137608;28;20457;-62
2023/07/02 02:43:01;;;;;;;15.23;10.40;;;15.40;1.00;;;;;;5139378;27;20445;-60
2023/07/02 02:45:29;;;;;;;15.13;10.43;;;15.40;1.00;;;;;;5140641;27;20776;-61
2023/07/02 02:47:57;;;;;;;14.80;9.73;;;15.40;1.00;;;;;;5142107;27;20515;-61
2023/07/02 02:50:24;;;;;;;19.00;10.60;;;15.40;1.00;;;;;;5142295;27;20490;-61
2023/07/02 02:52:51;;;;;;;18.03;11.10;;;15.40;1.00;;;;;;5141507;27;20478;-61
2023/07/02 02:55:19;;;;;;;22.43;10.93;;;15.40;1.00;;;;;;5141456;27;20462;-61
2023/07/02 02:57:46;;;;;;;15.97;12.13;;;15.40;1.00;;;;;;5141017;27;20458;-61
2023/07/02 03:00:14;;;;;;;19.10;11.20;;;15.40;1.00;;;;;;5140987;27;20458;-62
2023/07/02 03:02:41;;;;;;;15.73;11.03;;;15.40;1.00;;;;;;5141479;27;20787;-62
2023/07/02 03:05:10;;;;;;;17.50;11.67;;;15.40;1.00;;;;;;5140886;27;20747;-63
2023/07/02 03:07:37;;;;;;;19.60;12.73;;;15.40;1.00;;;;;;5141615;27;20459;-61
2023/07/02 03:10:05;;;;;;;20.60;11.83;;;15.40;1.00;;;;;;5140544;27;20470;-61
2023/07/02 03:12:32;;;;;;;20.40;11.10;;;15.40;99.90;;;;;;5140910;27;20455;-61
2023/07/02 03:14:59;;;;;;;17.00;12.07;;;15.40;1.00;;;;;;5141728;27;20454;-61
2023/07/02 03:17:26;;;;;;;19.30;11.67;;;15.40;1.00;;;;;;5141522;27;20768;-61
2023/07/02 03:19:53;;;;;;;21.07;13.20;;;15.40;99.90;;;;;;5140213;27;20432;-63
2023/07/02 03:22:22;;;;;;;18.43;12.80;;;15.40;1.00;;;;;;5141503;27;20494;-61
2023/07/02 03:24:49;;;;;;;18.00;13.10;;;15.50;99.90;;;;;;5141529;27;20458;-61
2023/07/02 03:27:16;;;;;;;23.67;14.03;;;15.50;1.00;;;;;;5141222;27;20536;-62
2023/07/02 03:29:43;;;;;;;21.33;13.10;;;15.40;1.00;;;;;;5141151;27;20463;-63
2023/07/02 03:32:10;;;;;;;24.20;14.80;;;15.40;1.00;;;;;;5141396;27;20458;-60
2023/07/02 03:34:37;;;;;;;23.00;14.73;;;15.50;1.00;;;;;;5141150;27;20458;-61
2023/07/02 03:37:12;;;;;;;20.00;13.73;;;15.50;99.90;;;;;;5140692;27;20458;-61
2023/07/02 03:39:41;;;;;;;18.37;13.30;;;15.50;1.00;;;;;;5140893;27;20552;-62
2023/07/02 03:42:08;;;;;;;21.57;13.70;;;15.50;99.90;;;;;;5141062;27;20777;-61
2023/07/02 03:44:35;;;;;;;22.53;14.70;;;15.50;1.00;;;;;;5141162;27;20434;-61
2023/07/02 03:47:02;;;;;;;23.50;16.60;;;15.50;1.00;;;;;;5140723;27;21237;-61
2023/07/02 03:49:30;;;;;;;19.50;14.20;;;15.50;1.00;;;;;;5140866;27;20883;-61
2023/07/02 03:51:57;;;;;;;20.17;14.63;;;15.50;1.00;;;;;;5140879;27;20538;-60
2023/07/02 03:54:24;;;;;;;23.07;16.23;;;15.50;1.00;;;;;;5140032;27;20469;-62
2023/07/02 03:56:53;;;;;;;20.87;14.80;;;15.50;1.00;;;;;;5140922;27;20463;-62
2023/07/02 03:59:20;;;;;;;21.47;14.67;;;15.50;1.00;;;;;;5140407;27;20436;-62
2023/07/02 04:01:47;;;;;;;21.67;15.13;;;15.50;1.00;;;;;;5140307;27;20945;-62
2023/07/02 04:04:14;;;;;;;31.37;18.63;;;15.50;1.00;;;;;;5140100;27;20441;-62
2023/07/02 04:06:42;;;;;;;23.07;15.20;;;15.50;1.00;;;;;;5141004;27;20467;-62
2023/07/02 04:09:09;;;;;;;26.70;17.20;;;15.50;1.00;;;;;;5140137;27;20437;-61
2023/07/02 04:11:36;;;;;;;26.67;16.27;;;15.50;1.00;;;;;;5140503;27;20487;-61
2023/07/02 04:14:05;;;;;;;23.47;15.57;;;15.50;1.00;;;;;;5140225;27;20459;-60
2023/07/02 04:16:32;;;;;;;24.57;15.47;;;15.50;1.00;;;;;;5140643;27;20870;-61
2023/07/02 04:18:59;;;;;;;21.00;15.83;;;15.50;1.00;;;;;;5140856;27;20429;-61
2023/07/02 04:21:27;;;;;;;26.33;18.50;;;15.50;99.90;;;;;;5139928;27;20490;-60
2023/07/02 04:23:54;;;;;;;25.03;16.33;;;15.50;1.00;;;;;;5140275;27;20876;-61
2023/07/02 04:26:21;;;;;;;27.00;18.30;;;15.50;1.00;;;;;;5140651;27;20746;-61
2023/07/02 04:28:48;;;;;;;27.83;17.70;;;15.60;99.90;;;;;;5140252;27;20440;-62
2023/07/02 04:31:16;;;;;;;23.43;16.93;;;15.60;99.90;;;;;;5139849;27;20429;-61
2023/07/02 04:33:44;;;;;;;29.67;17.50;;;15.60;99.90;;;;;;5140004;27;20865;-62
2023/07/02 04:36:12;;;;;;;29.93;19.50;;;15.60;99.90;;;;;;5140057;27;20480;-62
2023/07/02 04:38:40;;;;;;;30.17;18.60;;;15.60;99.90;;;;;;5140345;27;20787;-62
2023/07/02 04:41:10;;;;;;;28.63;17.30;;;15.60;99.90;;;;;;5138633;27;20544;-62
2023/07/02 04:43:37;;;;;;;24.73;16.87;;;15.60;99.90;;;;;;5139711;27;20467;-62
2023/07/02 04:46:07;;;;;;;33.43;19.50;;;15.60;99.90;;;;;;5140020;27;20465;-62
2023/07/02 04:48:36;;;;;;;26.87;18.20;;;15.60;99.90;;;;;;5139663;27;20527;-62
2023/07/02 04:51:03;;;;;;;27.03;17.20;;;15.70;99.90;;;;;;5139793;27;20455;-61
2023/07/02 04:53:30;;;;;;;31.27;18.80;;;15.70;99.90;;;;;;5139426;27;20444;-61
2023/07/02 04:55:58;;;;;;;25.60;17.90;;;15.70;99.90;;;;;;5139731;27;20870;-67
2023/07/02 04:58:25;;;;;;;26.17;18.00;;;15.70;99.90;;;;;;5139993;27;20534;-70
2023/07/02 05:00:52;;;;;;;30.10;19.60;;;15.70;99.90;;;;;;5138906;27;20466;-68
2023/07/02 05:03:19;;;;;;;26.73;19.37;;;15.70;99.90;;;;;;5139623;27;20463;-69
2023/07/02 05:05:47;;;;;;;22.63;17.47;;;15.70;99.90;;;;;;5138924;27;20549;-68
2023/07/02 05:08:15;;;;;;;24.10;18.40;;;15.80;99.90;;;;;;5138978;27;20756;-69
2023/07/02 05:10:42;;;;;;;27.13;18.37;;;15.80;99.90;;;;;;5137827;27;20444;-69
2023/07/02 05:13:11;;;;;;;25.17;17.73;;;15.80;99.90;;;;;;5138163;27;20508;-69
2023/07/02 05:15:38;;;;;;;34.43;18.33;;;15.90;99.90;;;;;;5138898;27;20439;-68
2023/07/02 05:18:06;;;;;;;33.03;19.17;;;15.80;99.90;;;;;;5138147;27;20458;-69
2023/07/02 05:20:33;;;;;;;28.07;19.43;;;15.80;99.90;;;;;;5139035;27;20558;-68
2023/07/02 05:23:02;;;;;;;25.43;18.50;;;15.90;99.90;;;;;;5138872;27;20902;-68
2023/07/02 05:25:29;;;;;;;25.90;18.20;;;15.90;99.90;;;;;;5138955;27;20433;-66
2023/07/02 05:27:56;;;;;;;26.70;18.73;;;15.90;99.90;;;;;;5139244;27;20469;-68
2023/07/02 05:30:24;;;;;;;32.57;19.70;;;15.90;99.90;;;;;;5138872;27;20913;-67
2023/07/02 05:32:51;;;;;;;28.60;18.53;;;15.90;99.90;;;;;;5135271;27;20465;-68
2023/07/02 05:35:18;;;;;;;29.60;19.10;;;15.90;99.90;;;;;;5137263;27;20462;-66
2023/07/02 05:37:46;;;;;;;31.43;21.03;;;15.90;99.90;;;;;;5137327;27;20855;-69
2023/07/02 05:40:15;;;;;;;31.90;21.93;;;15.90;99.90;;;;;;5137973;27;20972;-69
2023/07/02 05:42:42;;;;;;;31.90;20.67;;;15.90;99.90;;;;;;5138426;27;20497;-69
2023/07/02 05:45:11;;;;;;;35.30;20.60;;;16.00;99.90;;;;;;5139069;27;20788;-69
2023/07/02 05:47:38;;;;;;;29.30;19.57;;;16.00;99.90;;;;;;5138740;27;20437;-68
2023/07/02 05:50:06;;;;;;;29.13;20.40;;;16.10;99.90;;;;;;5138508;27;20851;-69
2023/07/02 05:52:33;;;;;;;25.17;18.90;;;16.20;99.90;;;;;;5138378;27;20868;-68
2023/07/02 05:55:00;;;;;;;31.30;20.67;;;16.20;99.90;;;;;;5139050;27;20478;-69
2023/07/02 05:57:29;;;;;;;36.07;21.93;;;16.20;99.90;;;;;;5138756;27;20466;-69
2023/07/02 05:59:56;;;;;;;26.90;19.13;;;16.20;99.90;;;;;;5138893;27;20549;-68
2023/07/02 06:02:23;;;;;;;32.20;20.50;;;16.30;99.90;;;;;;5137660;27;20500;-67
2023/07/02 06:04:51;;;;;;;28.87;19.37;;;16.40;99.90;;;;;;5138133;27;20437;-69
2023/07/02 06:07:18;;;;;;;29.60;19.90;;;16.40;99.90;;;;;;5137904;27;20458;-69
2023/07/02 06:09:45;;;;;;;32.33;19.53;;;16.60;99.90;;;;;;5138705;27;20458;-69
2023/07/02 06:12:12;;;;;;;31.67;21.00;;;16.60;99.90;;;;;;5138041;27;20458;-69
2023/07/02 06:14:41;;;;;;;27.93;20.80;;;16.50;99.90;;;;;;5138487;27;20536;-69
2023/07/02 06:17:09;;;;;;;24.50;18.97;;;16.60;99.90;;;;;;5137474;27;20905;-69
2023/07/02 06:19:38;;;;;;;37.93;22.20;;;16.60;99.90;;;;;;5138494;27;20531;-68
2023/07/02 06:22:05;;;;;;;29.20;21.17;;;16.60;99.90;;;;;;5138285;27;20490;-69
2023/07/02 06:24:32;;;;;;;28.13;19.27;;;16.70;99.90;;;;;;5138091;28;20458;-68
2023/07/02 06:26:59;;;;;;;32.03;20.83;;;16.60;99.90;;;;;;5137923;28;20470;-69
2023/07/02 06:29:28;;;;;;;29.53;22.57;;;16.60;99.90;;;;;;5138145;28;20458;-68
2023/07/02 06:31:56;;;;;;;27.90;20.70;;;16.80;99.90;;;;;;5138530;28;20432;-70
2023/07/02 06:34:24;;;;;;;30.17;20.90;;;16.90;99.90;;;;;;5137799;28;20466;-69
2023/07/02 06:36:51;;;;;;;26.90;19.07;;;17.00;99.90;;;;;;5138111;28;20514;-68
2023/07/02 06:39:18;;;;;;;32.37;20.73;;;17.10;99.90;;;;;;5138100;28;20737;-70
2023/07/02 06:41:45;;;;;;;28.67;18.27;;;17.10;99.90;;;;;;5137998;28;20573;-68
2023/07/02 06:44:12;;;;;;;31.63;19.10;;;17.30;99.90;;;;;;5137699;28;20761;-69
2023/07/02 06:46:39;;;;;;;29.77;18.83;;;17.30;99.90;;;;;;5138545;28;20451;-66
2023/07/02 06:49:08;;;;;;;24.07;18.27;;;17.30;99.90;;;;;;5137344;28;20451;-67
2023/07/02 06:51:36;;;;;;;28.23;18.03;;;17.50;99.90;;;;;;5137872;28;20451;-69
2023/07/02 06:54:03;;;;;;;23.67;17.30;;;17.40;99.90;;;;;;5137722;28;20485;-70
2023/07/02 06:56:34;;;;;;;25.47;18.30;;;17.30;1.00;;;;;;5117424;28;20550;-67
2023/07/02 06:59:01;;;;;;;26.03;17.50;;;17.20;99.90;;;;;;5117458;28;20479;-69
2023/07/02 07:01:28;;;;;;;29.20;18.80;;;17.40;99.90;;;;;;5116445;28;20531;-69
2023/07/02 07:03:55;;;;;;;30.47;18.23;;;17.70;99.90;;;;;;5116013;28;20499;-69
2023/07/02 07:06:24;;;;;;;26.80;18.47;;;17.80;99.90;;;;;;5118365;28;20483;-69
2023/07/02 07:08:51;;;;;;;28.57;18.13;;;18.10;99.90;;;;;;5137976;28;20746;-69
2023/07/02 07:11:18;;;;;;;25.17;17.50;;;18.10;1.00;;;;;;5137573;28;20511;-69
2023/07/02 07:13:46;;;;;;;30.63;17.63;;;18.10;1.00;;;;;;5137908;28;20817;-68
2023/07/02 07:16:13;;;;;;;26.23;15.27;;;18.50;91.60;;;;;;5138033;28;20939;-67
2023/07/02 07:18:40;;;;;;;26.87;17.53;;;18.70;99.90;;;;;;5137791;28;20462;-69
2023/07/02 07:21:07;;;;;;;24.00;16.40;;;18.80;99.90;;;;;;5137351;28;20437;-68
2023/07/02 07:23:36;;;;;;;26.53;16.93;;;18.80;99.90;;;;;;5136892;28;20487;-69
2023/07/02 07:26:03;;;;;;;27.33;17.87;;;18.70;99.90;;;;;;5136745;28;20440;-67
2023/07/02 07:28:30;;;;;;;26.17;17.03;;;18.70;99.90;;;;;;5138026;27;20462;-69
2023/07/02 07:30:57;;;;;;;23.20;17.10;;;18.70;99.90;;;;;;5140629;27;20461;-69
2023/07/02 07:33:25;;;;;;;23.47;16.30;;;18.60;99.90;;;;;;5141631;27;20429;-69
2023/07/02 07:35:52;;;;;;;24.93;16.60;;;18.50;99.90;;;;;;5141411;27;20469;-69
2023/07/02 07:38:19;;;;;;;22.97;15.20;;;18.50;99.90;;;;;;5141387;27;20458;-70
2023/07/02 07:40:48;;;;;;;23.70;15.40;;;18.60;99.90;;;;;;5140615;27;20527;-70
2023/07/02 07:43:15;;;;;;;25.87;16.30;;;18.40;99.90;;;;;;5138344;27;20525;-68
2023/07/02 07:45:42;;;;;;;26.03;16.33;;;18.70;99.90;;;;;;5138586;27;20460;-70
2023/07/02 07:48:09;;;;;;;22.83;15.10;;;18.90;99.90;;;;;;5138290;27;20450;-71
2023/07/02 07:50:36;;;;;;;25.57;16.63;;;18.50;99.90;;;;;;5138173;27;20459;-69
2023/07/02 07:53:04;;;;;;;20.33;14.90;;;18.60;99.90;;;;;;5138309;27;20934;-71
2023/07/02 07:55:31;;;;;;;20.40;15.90;;;18.70;99.90;;;;;;5137555;27;20448;-69
2023/07/02 07:58:00;;;;;;;26.33;15.60;;;18.60;99.90;;;;;;5138806;27;20734;-67
2023/07/02 08:00:27;;;;;;;23.17;15.80;;;18.50;99.90;;;;;;5139246;27;20433;-69
2023/07/02 08:02:57;;;;;;;22.80;16.10;;;18.50;99.90;;;;;;5139561;27;20855;-70
2023/07/02 08:05:27;;;;;;;29.57;16.57;;;18.40;99.90;;;;;;5139560;27;20757;-71
2023/07/02 08:07:54;;;;;;;22.20;15.27;;;18.50;99.90;;;;;;5139967;27;20465;-71
2023/07/02 08:10:21;;;;;;;19.70;14.07;;;18.60;99.90;;;;;;5140186;27;20896;-70
2023/07/02 08:12:49;;;;;;;20.60;12.20;;;18.70;99.90;;;;;;5130620;27;20457;-70
2023/07/02 08:15:18;;;;;;;20.03;12.20;;;18.40;99.90;;;;;;5134553;27;20453;-67
2023/07/02 08:17:45;;;;;;;19.80;13.23;;;18.50;99.90;;;;;;5139856;27;20734;-72
2023/07/02 08:20:13;;;;;;;17.67;13.03;;;18.60;99.90;;;;;;5139788;27;20501;-70
2023/07/02 08:22:41;;;;;;;22.13;15.27;;;18.60;99.90;;;;;;5139814;27;20901;-70
2023/07/02 08:25:09;;;;;;;20.33;13.53;;;18.70;99.90;;;;;;5139403;27;20864;-72
2023/07/02 08:27:36;;;;;;;22.03;13.23;;;18.70;99.90;;;;;;5140193;27;20939;-70
2023/07/02 08:30:06;;;;;;;23.17;13.63;;;18.80;99.90;;;;;;5139876;27;20896;-65
2023/07/02 08:32:34;;;;;;;23.00;14.40;;;19.20;99.90;;;;;;5139126;27;20744;-70
2023/07/02 08:35:01;;;;;;;19.07;14.13;;;19.20;99.90;;;;;;5140272;27;20429;-68
2023/07/02 08:37:29;;;;;;;18.83;12.60;;;19.30;99.90;;;;;;5140184;27;20438;-68
2023/07/02 08:39:56;;;;;;;20.33;14.70;;;19.10;99.90;;;;;;5139489;27;20528;-67
2023/07/02 08:42:23;;;;;;;23.40;13.23;;;18.80;99.90;;;;;;5139803;27;20468;-69
2023/07/02 08:44:55;;;;;;;22.70;14.97;;;18.40;99.90;;;;;;5139163;27;20958;-69
2023/07/02 08:47:28;;;;;;;21.00;15.63;;;17.90;99.90;;;;;;5139973;27;20458;-66
2023/07/02 08:49:57;;;;;;;24.83;17.10;;;17.60;99.90;;;;;;5141864;27;20479;-70
2023/07/02 08:52:25;;;;;;;20.47;14.97;;;17.60;99.90;;;;;;5140213;27;20859;-70
2023/07/02 08:54:52;;;;;;;26.93;16.93;;;17.70;99.90;;;;;;5139740;27;20473;-71
2023/07/02 08:57:21;;;;;;;26.20;15.67;;;17.70;99.90;;;;;;5139667;27;20465;-69
2023/07/02 08:59:51;;;;;;;22.77;13.93;;;17.70;99.90;;;;;;5140047;27;20900;-71
2023/07/02 09:02:18;;;;;;;19.20;14.40;;;17.80;99.90;;;;;;5139289;27;20469;-70
2023/07/02 09:04:45;;;;;;;23.90;15.37;;;18.00;99.90;;;;;;5139629;27;20515;-71
2023/07/02 09:07:14;;;;;;;20.13;13.53;;;18.30;99.90;;;;;;5139171;27;20501;-69
2023/07/02 09:09:49;;;;;;;20.47;14.70;;;18.80;99.90;;;;;;5139573;27;20441;-69
2023/07/02 09:12:27;;;;;;;20.43;14.03;;;19.20;99.90;;;;;;5139301;27;20458;-72
2023/07/02 09:14:58;;;;;;;20.83;14.67;;;19.30;99.90;;;;;;5126936;27;20937;-70
2023/07/02 09:17:29;;;;;;;21.10;14.80;;;19.10;99.90;;;;;;5131371;27;20471;-73
2023/07/02 09:19:57;;;;;;;20.83;14.50;;;19.30;99.90;;;;;;5151822;27;20467;-70
2023/07/02 09:22:26;;;;;;;22.93;15.97;;;19.30;99.90;;;;;;5160166;27;20478;-69
2023/07/02 09:24:54;;;;;;;24.07;17.13;;;19.30;99.90;;;;;;5142040;27;20495;-70
2023/07/02 09:27:22;;;;;;;21.87;15.60;;;18.90;99.90;;;;;;5138317;27;20468;-71
2023/07/02 09:29:53;;;;;;;24.07;16.47;;;18.80;99.90;;;;;;5122730;27;20777;-68
2023/07/02 09:32:27;;;;;;;23.33;15.30;;;18.50;99.90;;;;;;5134912;27;20453;-71
2023/07/02 09:34:58;;;;;;;25.57;15.17;;;18.50;99.90;;;;;;5136431;27;20436;-70
2023/07/02 09:37:31;;;;;;;25.93;16.37;;;18.40;99.90;;;;;;5139196;27;20891;-63
2023/07/02 09:39:59;;;;;;;18.43;13.93;;;18.40;99.90;;;;;;5137489;27;20972;-69
2023/07/02 09:42:26;;;;;;;21.20;15.80;;;18.30;99.90;;;;;;5137100;27;20515;-69
2023/07/02 09:44:56;;;;;;;22.50;15.50;;;18.30;99.90;;;;;;5136032;27;20471;-71
2023/07/02 09:47:24;;;;;;;24.57;15.10;;;18.30;99.90;;;;;;5137012;27;20520;-72
2023/07/02 09:49:55;;;;;;;18.80;13.50;;;18.40;99.90;;;;;;5132884;27;20508;-70
2023/07/02 09:52:23;;;;;;;22.40;16.00;;;18.30;99.90;;;;;;5116435;28;20864;-68
2023/07/02 09:54:51;;;;;;;24.10;16.53;;;19.20;99.90;;;;;;5116743;28;20451;-70
2023/07/02 09:57:19;;;;;;;25.53;16.70;;;20.00;99.90;;;;;;5117911;28;20477;-72
2023/07/02 09:59:46;;;;;;;26.20;14.70;;;20.60;99.90;;;;;;5117706;28;20499;-72
2023/07/02 10:02:14;;;;;;;21.67;15.57;;;20.50;99.90;;;;;;5117215;28;20487;-69
2023/07/02 10:04:42;;;;;;;21.10;15.23;;;20.00;99.90;;;;;;5137100;27;20469;-70
2023/07/02 10:07:10;;;;;;;24.10;17.10;;;19.40;99.90;;;;;;5137426;27;20458;-71
2023/07/02 10:09:38;;;;;;;25.63;16.07;;;19.10;99.90;;;;;;5137359;27;20465;-70
2023/07/02 10:12:19;;;;;;;27.37;18.50;;;19.00;99.90;;;;;;5138945;27;20758;-71
2023/07/02 10:14:47;;;;;;;21.17;16.77;;;18.40;99.90;;;;;;5137235;27;20724;-69
2023/07/02 10:17:28;;;;;;;24.57;18.23;;;18.10;99.90;;;;;;5136458;27;20557;-72
2023/07/02 10:19:57;;;;;;;26.80;16.40;;;18.10;99.90;;;;;;5137046;27;20480;-69
2023/07/02 10:22:24;;;;;;;23.10;17.57;;;18.40;99.90;;;;;;5137832;27;20454;-70
2023/07/02 10:24:57;;;;;;;24.50;16.93;;;19.20;99.90;;;;;;5137242;28;20501;-72
2023/07/02 10:27:36;;;;;;;24.47;18.37;;;19.40;99.90;;;;;;5137754;28;20553;-70
2023/07/02 10:30:05;;;;;;;25.90;17.27;;;19.20;99.90;;;;;;5137682;27;20458;-67
2023/07/02 10:32:33;;;;;;;28.03;17.47;;;19.10;99.90;;;;;;5138410;28;20963;-70
2023/07/02 10:35:02;;;;;;;26.33;18.20;;;18.80;99.90;;;;;;5138289;28;20425;-70
2023/07/02 10:37:37;;;;;;;25.80;18.43;;;18.60;99.90;;;;;;5137330;28;20466;-69
2023/07/02 10:40:06;;;;;;;30.13;19.43;;;18.40;99.90;;;;;;5135893;28;20429;-69
2023/07/02 10:42:35;;;;;;;31.90;18.63;;;18.00;99.90;;;;;;5137906;28;20531;-70
2023/07/02 10:45:02;;;;;;;30.03;19.63;;;17.90;99.90;;;;;;5137235;28;20458;-68
2023/07/02 10:47:30;;;;;;;26.37;17.73;;;17.90;99.90;;;;;;5136013;28;20527;-70
2023/07/02 10:49:58;;;;;;;26.17;18.40;;;17.80;99.90;;;;;;5137350;28;20516;-70
2023/07/02 10:52:25;;;;;;;27.77;20.13;;;17.70;99.90;;;;;;5137741;28;20437;-71
2023/07/02 10:54:52;;;;;;;25.50;18.70;;;17.50;99.90;;;;;;5138281;28;20476;-70
2023/07/02 10:57:21;;;;;;;29.33;18.93;;;17.70;99.90;;;;;;5137407;28;20461;-69
2023/07/02 10:59:49;;;;;;;35.80;19.90;;;17.80;99.90;;;;;;5116624;28;20913;-69
2023/07/02 11:02:18;;;;;;;29.70;16.50;;;17.80;99.90;;;;;;5115632;28;20928;-69
2023/07/02 11:04:46;;;;;;;24.07;15.47;;;17.70;99.90;;;;;;5138524;27;20471;-70
2023/07/02 11:07:15;;;;;;;26.63;16.23;;;17.50;99.90;;;;;;5141654;27;20549;-68
2023/07/02 11:09:51;;;;;;;23.10;15.20;;;17.70;99.90;;;;;;5140926;27;20461;-69
2023/07/02 11:12:18;;;;;;;21.50;14.17;;;18.00;99.90;;;;;;5140129;27;20454;-67
2023/07/02 11:14:45;;;;;;;26.80;15.40;;;18.20;99.90;;;;;;5141359;27;20543;-69
2023/07/02 11:17:14;;;;;;;20.30;14.07;;;18.50;99.90;;;;;;5140499;27;20557;-68
2023/07/02 11:19:41;;;;;;;18.23;13.40;;;19.20;1.00;;;;;;5140191;27;20458;-69
2023/07/02 11:22:09;;;;;;;17.47;12.53;;;19.60;1.00;;;;;;5139630;27;20463;-71
2023/07/02 11:24:39;;;;;;;18.43;11.97;;;19.90;1.00;;;;;;5140496;27;20785;-69
2023/07/02 11:27:07;;;;;;;18.40;12.60;;;20.20;1.00;;;;;;5141060;27;20450;-71
2023/07/02 11:29:36;;;;;;;26.33;13.97;;;20.30;1.00;;;;;;5140409;27;20561;-69
2023/07/02 11:32:06;;;;;;;19.70;12.57;;;20.00;1.00;;;;;;5140088;27;20773;-69
2023/07/02 11:34:35;;;;;;;14.80;11.37;;;19.90;1.00;;;;;;5140911;27;20859;-70
2023/07/02 11:37:03;;;;;;;16.23;11.47;;;19.80;1.00;;;;;;5139917;27;20557;-70
2023/07/02 11:39:30;;;;;;;17.40;10.10;;;19.80;1.00;;;;;;5140750;27;20462;-71
2023/07/02 11:41:57;;;;;;;13.33;10.03;;;19.70;1.00;;;;;;5141101;27;20808;-64
2023/07/02 11:44:25;;;;;;;13.00;9.27;;;20.10;1.00;;;;;;5140297;27;20487;-69
2023/07/02 11:46:53;;;;;;;14.37;10.70;;;20.40;1.00;;;;;;5140282;27;20433;-60
2023/07/02 11:49:20;;;;;;;12.77;10.17;;;20.80;1.00;;;;;;5139188;27;20736;-62
2023/07/02 11:51:49;;;;;;;16.30;10.50;;;21.40;1.00;;;;;;5138897;27;20463;-63
2023/07/02 11:54:18;;;;;;;12.33;10.17;;;21.60;1.00;;;;;;5139950;27;20561;-60
2023/07/02 11:56:45;;;;;;;13.07;9.73;;;21.30;16.20;;;;;;5139699;27;20458;-60
2023/07/02 11:59:12;;;;;;;13.77;11.23;;;21.40;1.00;;;;;;5119872;27;20467;-60
2023/07/02 12:01:40;;;;;;;13.90;9.60;;;22.20;1.00;;;;;;5121986;27;20565;-62
2023/07/02 12:04:07;;;;;;;15.07;11.23;;;22.00;1.00;;;;;;5133775;27;21086;-61
2023/07/02 12:06:35;;;;;;;14.97;9.90;;;21.70;1.00;;;;;;5139787;27;20817;-63
2023/07/02 12:09:06;;;;;;;15.27;10.50;;;21.90;99.90;;;;;;5139167;27;20458;-63
2023/07/02 12:11:33;;;;;;;16.80;11.10;;;21.80;1.00;;;;;;5139693;27;20552;-61
2023/07/02 12:14:00;;;;;;;15.67;10.67;;;21.80;65.20;;;;;;5139640;27;20455;-62
2023/07/02 12:16:27;;;;;;;15.70;10.40;;;21.90;99.90;;;;;;5138425;27;20458;-62
2023/07/02 12:18:55;;;;;;;13.80;9.87;;;21.40;99.00;;;;;;5139313;27;20459;-62
2023/07/02 12:21:22;;;;;;;12.43;9.43;;;22.10;99.90;;;;;;5139420;27;20553;-62
2023/07/02 12:23:49;;;;;;;14.97;10.10;;;22.80;37.40;;;;;;5139515;27;21104;-62
2023/07/02 12:26:18;;;;;;;14.43;10.10;;;22.90;1.00;;;;;;5139306;27;20925;-60
2023/07/02 12:28:45;;;;;;;13.93;11.80;;;22.60;1.00;;;;;;5139407;27;20488;-65
2023/07/02 12:31:13;;;;;;;13.23;8.77;;;23.00;32.80;;;;;;5138557;27;20459;-64
2023/07/02 12:33:40;;;;;;;18.23;9.93;;;23.10;43.20;;;;;;5124519;27;20456;-62
2023/07/02 12:36:08;;;;;;;15.47;9.07;;;23.30;49.60;;;;;;5122955;27;20507;-63